createdAt,value
2023-01-10T00:00:45.265Z,5.30
2023-01-10T00:05:52.127Z,5.50
2023-01-10T00:10:59.289Z,5.70
2023-01-10T00:16:10.134Z,5.40
2023-01-10T00:21:17.146Z,5.40
2023-01-10T00:26:24.062Z,5.40
2023-01-10T00:31:30.870Z,5.40
2023-01-10T00:36:38.412Z,5.60
2023-01-10T00:42:02.704Z,5.80
2023-01-10T00:47:09.406Z,5.60
2023-01-10T00:52:16.291Z,5.40
2023-01-10T00:57:23.035Z,5.50
2023-01-10T01:02:30.106Z,5.40
2023-01-10T01:07:37.096Z,5.40
2023-01-10T01:12:44.229Z,5.30
2023-01-10T01:17:50.983Z,5.40
2023-01-10T01:22:58.137Z,5.40
2023-01-10T01:28:06.067Z,5.20
2023-01-10T01:33:13.331Z,5.20
2023-01-10T01:38:20.992Z,5.10
2023-01-10T01:43:34.860Z,5.10
2023-01-10T01:48:42.810Z,5.20
2023-01-10T01:54:06.171Z,5.00
2023-01-10T01:59:17.669Z,5.10
2023-01-10T02:04:49.686Z,5.10
2023-01-10T02:10:01.349Z,5.10
2023-01-10T02:15:09.261Z,5.20
2023-01-10T02:20:20.841Z,5.00
2023-01-10T02:25:43.872Z,5.00
2023-01-10T02:31:03.619Z,5.00
2023-01-10T02:36:29.479Z,5.00
2023-01-10T02:42:11.783Z,5.20
2023-01-10T02:47:18.542Z,5.00
2023-01-10T02:52:29.041Z,4.90
2023-01-10T02:58:19.354Z,5.00
2023-01-10T03:09:38.825Z,5.20
2023-01-10T03:14:47.603Z,5.10
2023-01-10T03:19:58.217Z,5.00
2023-01-10T03:25:08.663Z,5.00
2023-01-10T03:30:28.114Z,5.20
2023-01-10T03:35:54.292Z,5.00
2023-01-10T03:41:08.168Z,5.10
2023-01-10T03:46:22.455Z,5.20
2023-01-10T03:51:30.425Z,5.20
2023-01-10T03:56:50.124Z,5.20
2023-01-10T04:01:58.527Z,5.20
2023-01-10T04:07:05.427Z,5.20
2023-01-10T04:12:12.065Z,5.30
2023-01-10T04:17:20.069Z,5.40
2023-01-10T04:22:26.985Z,5.30
2023-01-10T04:27:33.848Z,5.30
2023-01-10T04:32:40.547Z,5.30
2023-01-10T04:37:47.347Z,5.20
2023-01-10T04:42:54.014Z,5.20
2023-01-10T04:48:00.702Z,5.30
2023-01-10T04:53:07.387Z,5.30
2023-01-10T04:58:14.666Z,5.30
2023-01-10T05:03:21.889Z,5.20
2023-01-10T05:08:28.567Z,5.30
2023-01-10T05:13:35.410Z,5.30
2023-01-10T05:18:42.134Z,5.20
2023-01-10T05:23:49.264Z,5.30
2023-01-10T05:28:56.398Z,5.20
2023-01-10T05:34:03.456Z,5.30
2023-01-10T05:39:10.291Z,5.20
2023-01-10T05:44:17.118Z,5.20
2023-01-10T05:49:23.802Z,5.20
2023-01-10T05:54:31.248Z,5.30
2023-01-10T05:59:38.138Z,5.40
2023-01-10T06:04:45.210Z,5.10
2023-01-10T06:09:52.013Z,5.30
2023-01-10T06:14:58.968Z,5.10
2023-01-10T06:20:06.068Z,5.40
2023-01-10T06:25:14.768Z,5.30
2023-01-10T06:30:21.546Z,5.30
2023-01-10T06:35:28.641Z,5.30
2023-01-10T06:40:35.464Z,5.20
2023-01-10T06:45:42.317Z,5.10
2023-01-10T06:50:49.047Z,5.10
2023-01-10T06:55:57.791Z,5.20
2023-01-10T07:01:04.767Z,5.10
2023-01-10T07:06:12.483Z,5.10
2023-01-10T07:11:19.227Z,5.20
2023-01-10T07:16:27.230Z,5.20
2023-01-10T07:21:34.155Z,5.10
2023-01-10T07:26:40.894Z,5.10
2023-01-10T07:31:47.739Z,5.10
2023-01-10T07:36:54.804Z,5.10
2023-01-10T07:42:01.620Z,5.10
2023-01-10T07:47:08.666Z,5.10
2023-01-10T07:52:15.706Z,5.10
2023-01-10T07:57:22.352Z,5.10
2023-01-10T08:02:29.261Z,5.10
2023-01-10T08:07:36.623Z,5.10
2023-01-10T08:12:43.231Z,5.20
2023-01-10T08:17:50.428Z,5.30
2023-01-10T08:23:01.994Z,5.30
2023-01-10T08:28:09.192Z,5.30
2023-01-10T08:33:16.014Z,5.50
2023-01-10T08:38:22.657Z,5.30
2023-01-10T08:43:29.779Z,5.30
2023-01-10T08:48:37.074Z,5.20
2023-01-10T08:53:44.231Z,5.30
2023-01-10T08:58:51.285Z,5.40
2023-01-10T09:03:58.175Z,5.40
2023-01-10T09:09:05.488Z,5.30
2023-01-10T09:14:12.131Z,5.30
2023-01-10T09:19:19.732Z,5.40
2023-01-10T09:24:26.753Z,5.50
2023-01-10T09:29:33.559Z,5.50
2023-01-10T09:34:40.268Z,5.50
2023-01-10T09:39:46.992Z,5.60
2023-01-10T09:45:16.244Z,5.60
2023-01-10T09:50:30.169Z,5.70
2023-01-10T09:55:37.537Z,5.70
2023-01-10T10:01:14.995Z,5.80
2023-01-10T10:06:23.968Z,5.80
2023-01-10T10:11:53.130Z,5.80
2023-01-10T10:17:34.411Z,5.80
2023-01-10T10:23:23.151Z,5.80
2023-01-10T10:28:59.862Z,5.80
2023-01-10T10:34:26.847Z,5.90
2023-01-10T10:39:46.640Z,5.80
2023-01-10T10:45:00.886Z,5.80
2023-01-10T10:50:36.650Z,5.80
2023-01-10T10:55:43.375Z,5.70
2023-01-10T11:00:50.992Z,5.90
2023-01-10T11:05:58.571Z,5.90
2023-01-10T11:11:08.234Z,5.70
2023-01-10T11:16:30.973Z,5.90
2023-01-10T11:21:39.540Z,5.70
2023-01-10T11:26:46.575Z,5.90
2023-01-10T11:31:56.503Z,5.90
2023-01-10T11:37:07.871Z,6.00
2023-01-10T11:42:33.355Z,5.90
2023-01-10T11:47:45.654Z,5.80
2023-01-10T11:52:53.445Z,5.70
2023-01-10T11:58:10.429Z,5.80
2023-01-10T12:03:30.038Z,5.80
2023-01-10T12:08:42.023Z,5.80
2023-01-10T12:13:57.185Z,6.00
2023-01-10T12:19:09.134Z,5.90
2023-01-10T12:24:20.414Z,5.80
2023-01-10T12:29:31.543Z,5.90
2023-01-10T12:34:48.630Z,5.90
2023-01-10T12:40:05.519Z,5.80
2023-01-10T12:45:25.893Z,5.90
2023-01-10T12:50:53.377Z,5.90
2023-01-10T12:56:05.312Z,6.10
2023-01-10T13:01:16.541Z,6.20
2023-01-10T13:06:30.607Z,6.00
2023-01-10T13:11:39.402Z,6.10
2023-01-10T13:16:53.801Z,6.00
2023-01-10T13:22:23.580Z,6.00
2023-01-10T13:27:34.130Z,6.20
2023-01-10T13:32:40.833Z,6.00
2023-01-10T13:37:57.068Z,6.00
2023-01-10T13:43:38.308Z,6.10
2023-01-10T13:48:55.103Z,5.90
2023-01-10T13:54:05.181Z,5.90
2023-01-10T13:59:45.709Z,5.90
2023-01-10T14:05:05.195Z,6.00
2023-01-10T14:10:33.529Z,6.10
2023-01-10T14:15:44.103Z,5.90
2023-01-10T14:21:07.259Z,6.00
2023-01-10T14:26:36.378Z,5.80
2023-01-10T14:31:50.838Z,5.80
2023-01-10T14:37:05.061Z,5.70
2023-01-10T14:42:15.983Z,5.70
2023-01-10T14:47:37.789Z,5.60
2023-01-10T14:52:45.321Z,5.40
2023-01-10T14:58:04.133Z,5.40
2023-01-10T15:03:24.674Z,5.30
2023-01-10T15:08:33.164Z,5.30
2023-01-10T15:13:58.546Z,5.20
2023-01-10T15:19:05.145Z,5.00
2023-01-10T15:24:36.561Z,4.90
2023-01-10T15:29:45.132Z,4.80
2023-01-10T15:34:55.645Z,4.90
2023-01-10T15:40:04.571Z,5.00
2023-01-10T15:45:31.928Z,4.90
2023-01-10T15:50:45.165Z,4.70
2023-01-10T15:55:57.392Z,4.80
2023-01-10T16:01:05.431Z,4.90
2023-01-10T16:06:26.188Z,4.80
2023-01-10T16:12:00.451Z,4.60
2023-01-10T16:17:07.473Z,4.70
2023-01-10T16:22:17.762Z,4.60
2023-01-10T16:27:24.573Z,4.60
2023-01-10T16:32:31.837Z,4.60
2023-01-10T16:37:39.219Z,4.50
2023-01-10T16:43:03.603Z,4.50
2023-01-10T16:48:10.194Z,4.40
2023-01-10T16:53:19.569Z,4.30
2023-01-10T16:58:26.457Z,4.30
2023-01-10T17:03:38.279Z,4.10
2023-01-10T17:08:47.181Z,4.10
2023-01-10T17:13:54.588Z,3.90
2023-01-10T17:19:01.660Z,3.80
2023-01-10T17:24:10.897Z,3.80
2023-01-10T17:29:17.490Z,3.70
2023-01-10T17:34:24.944Z,3.60
2023-01-10T17:39:32.179Z,3.60
2023-01-10T17:44:39.047Z,3.60
2023-01-10T17:49:45.881Z,3.50
2023-01-10T17:54:52.672Z,3.60
2023-01-10T17:59:59.831Z,3.50
2023-01-10T18:05:07.288Z,3.50
2023-01-10T18:10:14.174Z,3.60
2023-01-10T18:15:22.621Z,3.50
2023-01-10T18:20:29.503Z,3.40
2023-01-10T18:25:36.489Z,3.30
2023-01-10T18:30:43.645Z,3.40
2023-01-10T18:35:50.769Z,3.40
2023-01-10T18:40:57.635Z,3.30
2023-01-10T18:46:09.065Z,3.10
2023-01-10T18:51:16.110Z,3.20
2023-01-10T18:56:23.064Z,3.20
2023-01-10T19:01:30.567Z,3.20
2023-01-10T19:06:37.335Z,3.20
2023-01-10T19:11:44.896Z,3.20
2023-01-10T19:16:51.820Z,3.10
2023-01-10T19:21:58.495Z,3.00
2023-01-10T19:27:06.246Z,3.10
2023-01-10T19:32:13.461Z,3.00
2023-01-10T19:37:20.396Z,2.90
2023-01-10T19:42:27.069Z,2.60
2023-01-10T19:47:34.017Z,2.70
2023-01-10T19:52:40.897Z,2.90
2023-01-10T19:57:47.709Z,2.90
2023-01-10T20:02:54.530Z,2.70
2023-01-10T20:08:02.334Z,2.60
2023-01-10T20:13:10.353Z,2.70
2023-01-10T20:18:17.326Z,2.70
2023-01-10T20:23:24.210Z,2.60
2023-01-10T20:28:31.265Z,2.60
2023-01-10T20:33:38.210Z,2.70
2023-01-10T20:38:45.120Z,2.50
2023-01-10T20:43:52.977Z,2.60
2023-01-10T20:49:02.555Z,2.60
2023-01-10T20:54:10.003Z,2.50
2023-01-10T20:59:17.416Z,2.40
2023-01-10T21:04:24.493Z,2.10
2023-01-10T21:09:32.358Z,2.30
2023-01-10T21:14:39.060Z,2.40
2023-01-10T21:19:46.065Z,2.50
2023-01-10T21:24:53.469Z,2.30
2023-01-10T21:30:01.497Z,2.20
2023-01-10T21:35:09.637Z,2.10
2023-01-10T21:40:16.607Z,2.40
2023-01-10T21:45:24.472Z,2.20
2023-01-10T21:50:33.064Z,2.20
2023-01-10T21:55:39.822Z,2.10
2023-01-10T22:00:46.719Z,2.30
2023-01-10T22:05:53.565Z,2.20
2023-01-10T22:11:00.205Z,2.10
2023-01-10T22:16:07.458Z,2.10
2023-01-10T22:21:15.707Z,2.00
2023-01-10T22:26:23.253Z,1.90
2023-01-10T22:31:30.326Z,1.90
2023-01-10T22:36:37.517Z,1.90
2023-01-10T22:41:44.335Z,2.10
2023-01-10T22:46:53.752Z,1.90
2023-01-10T22:52:01.174Z,2.00
2023-01-10T22:57:07.895Z,1.90
2023-01-10T23:02:14.897Z,1.90
2023-01-10T23:07:21.887Z,1.90
2023-01-10T23:12:29.207Z,1.70
2023-01-10T23:17:36.286Z,1.60
2023-01-10T23:22:43.292Z,1.50
2023-01-10T23:27:50.462Z,1.50
2023-01-10T23:32:57.483Z,1.40
2023-01-10T23:38:04.169Z,1.40
2023-01-10T23:43:11.050Z,1.50
2023-01-10T23:48:18.472Z,1.40
2023-01-10T23:53:25.941Z,1.40
2023-01-10T23:58:32.832Z,1.40
